createdAt,value
2019-05-29T00:00:07.853Z,101587.05
2019-05-29T00:02:59.854Z,101592.89
2019-05-29T00:05:51.841Z,101602.22
2019-05-29T00:08:43.761Z,101602.38
2019-05-29T00:11:35.595Z,101603.16
2019-05-29T00:14:27.903Z,101600.49
2019-05-29T00:17:19.755Z,101600.49
2019-05-29T00:20:12.386Z,101605.53
2019-05-29T00:23:04.517Z,101605.53
2019-05-29T00:25:56.627Z,101601.88
2019-05-29T00:28:48.687Z,101601.71
2019-05-29T00:31:40.746Z,101615.83
2019-05-29T00:34:32.583Z,101616.50
2019-05-29T00:37:24.404Z,101612.00
2019-05-29T00:40:17.115Z,101612.00
2019-05-29T00:43:09.570Z,101619.59
2019-05-29T00:46:01.405Z,101615.19
2019-05-29T00:48:53.433Z,101618.61
2019-05-29T00:51:45.611Z,101618.61
2019-05-29T00:54:37.843Z,101625.06
2019-05-29T00:57:29.670Z,101625.06
2019-05-29T01:00:21.753Z,101632.38
2019-05-29T01:03:13.829Z,101636.11
2019-05-29T01:06:05.628Z,101640.41
2019-05-29T01:08:57.283Z,101647.55
2019-05-29T01:11:49.465Z,101653.67
2019-05-29T01:14:49.713Z,101655.65
2019-05-29T01:17:35.234Z,101657.37
2019-05-29T01:20:27.180Z,101661.84
2019-05-29T01:23:20.350Z,101661.84
2019-05-29T01:26:14.486Z,101667.16
2019-05-29T01:29:06.644Z,101671.66
2019-05-29T01:31:58.667Z,101676.64
2019-05-29T01:34:50.708Z,101677.96
2019-05-29T01:37:42.467Z,101677.96
2019-05-29T01:40:34.484Z,101681.17
2019-05-29T01:43:27.660Z,101686.36
2019-05-29T01:46:19.833Z,101696.62
2019-05-29T01:49:12.160Z,101693.34
2019-05-29T01:52:04.055Z,101679.45
2019-05-29T01:54:56.387Z,101692.59
2019-05-29T01:57:48.810Z,101690.37
2019-05-29T02:00:41.187Z,101695.11
2019-05-29T02:03:33.494Z,101697.98
2019-05-29T02:06:25.618Z,101699.15
2019-05-29T02:09:17.982Z,101708.68
2019-05-29T02:12:09.982Z,101709.06
2019-05-29T02:15:02.269Z,101711.52
2019-05-29T02:17:54.411Z,101708.41
2019-05-29T02:20:46.447Z,101713.06
2019-05-29T02:23:38.415Z,101713.89
2019-05-29T02:26:30.532Z,101714.89
2019-05-29T02:29:22.942Z,101714.89
2019-05-29T02:32:14.939Z,101719.63
2019-05-29T02:35:07.286Z,101737.44
2019-05-29T02:37:59.157Z,101728.56
2019-05-29T02:40:51.253Z,101728.56
2019-05-29T02:43:43.097Z,101733.20
2019-05-29T02:46:34.987Z,101738.97
2019-05-29T02:49:28.121Z,101746.52
2019-05-29T02:52:20.111Z,101744.52
2019-05-29T02:55:11.975Z,101748.17
2019-05-29T02:58:03.829Z,101748.17
2019-05-29T03:00:55.555Z,101752.28
2019-05-29T03:03:47.404Z,101746.39
2019-05-29T03:06:39.173Z,101745.55
2019-05-29T03:09:32.527Z,101729.13
2019-05-29T03:12:25.068Z,101729.13
2019-05-29T03:15:17.203Z,101755.09
2019-05-29T03:18:08.991Z,101755.97
2019-05-29T03:21:01.068Z,101755.97
2019-05-29T03:23:52.879Z,101769.84
2019-05-29T03:26:44.821Z,101767.02
2019-05-29T03:29:38.587Z,101762.08
2019-05-29T03:32:32.392Z,101762.08
2019-05-29T03:35:24.054Z,101768.29
2019-05-29T03:38:16.095Z,101777.88
2019-05-29T03:41:07.746Z,101777.11
2019-05-29T03:43:59.825Z,101772.89
2019-05-29T03:46:51.610Z,101777.63
2019-05-29T03:49:43.321Z,101776.11
2019-05-29T03:52:35.149Z,101785.51
2019-05-29T03:55:27.496Z,101785.51
2019-05-29T03:58:20.563Z,101787.20
2019-05-29T04:01:13.399Z,101786.88
2019-05-29T04:04:05.719Z,101803.92
2019-05-29T04:06:57.768Z,101808.77
2019-05-29T04:09:49.822Z,101806.52
2019-05-29T04:12:41.697Z,101813.83
2019-05-29T04:15:36.187Z,101820.53
2019-05-29T04:18:29.709Z,101828.46
2019-05-29T04:21:21.966Z,101829.00
2019-05-29T04:24:14.127Z,101834.95
2019-05-29T04:27:07.205Z,101830.86
2019-05-29T04:30:00.243Z,101837.40
2019-05-29T04:32:52.104Z,101843.44
2019-05-29T04:35:44.210Z,101841.38
2019-05-29T04:38:38.437Z,101853.94
2019-05-29T04:41:30.918Z,101856.16
2019-05-29T04:44:23.167Z,101856.16
2019-05-29T04:47:15.287Z,101856.97
2019-05-29T04:50:07.370Z,101864.66
2019-05-29T04:52:59.202Z,101869.02
2019-05-29T04:55:51.083Z,101878.31
2019-05-29T04:58:43.040Z,101888.19
2019-05-29T05:01:35.091Z,101890.98
2019-05-29T05:04:27.175Z,101883.61
2019-05-29T05:07:18.926Z,101896.93
2019-05-29T05:10:10.726Z,101908.50
2019-05-29T05:13:03.059Z,101906.58
2019-05-29T05:15:54.945Z,101902.56
2019-05-29T05:18:46.896Z,101896.37
2019-05-29T05:21:38.624Z,101906.39
2019-05-29T05:24:30.647Z,101904.35
2019-05-29T05:27:22.538Z,101912.34
2019-05-29T05:30:14.908Z,101915.17
2019-05-29T05:33:06.649Z,101915.17
2019-05-29T05:35:58.740Z,101922.45
2019-05-29T05:38:50.937Z,101914.00
2019-05-29T05:41:42.892Z,101925.74
2019-05-29T05:44:34.989Z,101931.11
2019-05-29T05:47:43.469Z,101931.11
2019-05-29T05:50:20.869Z,101938.65
2019-05-29T05:53:13.822Z,101938.65
2019-05-29T05:56:06.067Z,101943.38
2019-05-29T05:58:57.879Z,101943.38
2019-05-29T06:01:50.232Z,101948.63
2019-05-29T06:04:42.427Z,101956.86
2019-05-29T06:07:34.649Z,101966.39
2019-05-29T06:10:26.797Z,101966.39
2019-05-29T06:13:18.999Z,101958.89
2019-05-29T06:16:11.039Z,101965.74
2019-05-29T06:19:03.496Z,101967.93
2019-05-29T06:21:55.589Z,101970.66
2019-05-29T06:24:47.660Z,101975.39
2019-05-29T06:27:39.416Z,101975.39
2019-05-29T06:30:31.329Z,101980.39
2019-05-29T06:33:23.289Z,101987.22
2019-05-29T06:36:15.090Z,101983.28
2019-05-29T06:39:07.116Z,101989.83
2019-05-29T06:41:59.173Z,101988.59
2019-05-29T06:44:51.420Z,101987.16
2019-05-29T06:47:44.613Z,101996.63
2019-05-29T06:50:37.474Z,101996.63
2019-05-29T06:53:29.608Z,101995.18
2019-05-29T06:56:21.864Z,101990.90
2019-05-29T06:59:14.058Z,101990.90
2019-05-29T07:02:06.219Z,101990.52
2019-05-29T07:04:58.076Z,101990.61
2019-05-29T07:07:49.846Z,101990.61
2019-05-29T07:10:42.640Z,102005.70
2019-05-29T07:13:35.400Z,102005.70
2019-05-29T07:16:43.254Z,102008.55
2019-05-29T07:19:28.214Z,102014.17
2019-05-29T07:22:16.375Z,102009.91
2019-05-29T07:25:08.728Z,102025.48
2019-05-29T07:28:01.026Z,102025.48
2019-05-29T07:31:00.995Z,102026.41
2019-05-29T07:33:47.425Z,102027.64
2019-05-29T07:36:39.932Z,102026.84
2019-05-29T07:39:32.190Z,102026.84
2019-05-29T07:42:23.984Z,102027.98
2019-05-29T07:45:15.782Z,102038.67
2019-05-29T07:48:07.657Z,102036.64
2019-05-29T07:51:06.952Z,102042.28
2019-05-29T07:53:53.524Z,102040.42
2019-05-29T07:56:46.530Z,102045.37
2019-05-29T07:59:38.831Z,102045.37
2019-05-29T08:02:31.064Z,102045.35
2019-05-29T08:05:23.212Z,102045.35
2019-05-29T08:08:15.263Z,102043.63
2019-05-29T08:11:07.039Z,102035.52
2019-05-29T08:13:59.099Z,102035.52
2019-05-29T08:16:51.169Z,102036.36
2019-05-29T08:20:00.353Z,102044.55
2019-05-29T08:22:36.726Z,102044.25
2019-05-29T08:25:28.590Z,102044.25
2019-05-29T08:28:20.423Z,102049.97
2019-05-29T08:31:12.242Z,102054.76
2019-05-29T08:34:04.242Z,102052.75
2019-05-29T08:37:06.631Z,102050.08
2019-05-29T08:39:51.576Z,102053.92
2019-05-29T08:42:45.162Z,102050.90
2019-05-29T08:45:37.469Z,102052.11
2019-05-29T08:48:29.425Z,102053.83
2019-05-29T08:51:21.467Z,102047.99
2019-05-29T08:54:23.591Z,102047.99
2019-05-29T08:57:07.338Z,102056.57
2019-05-29T08:59:59.573Z,102057.69
2019-05-29T09:02:52.712Z,102064.89
2019-05-29T09:05:44.930Z,102064.83
2019-05-29T09:08:37.045Z,102064.83
2019-05-29T09:11:29.015Z,102067.41
2019-05-29T09:14:21.154Z,102062.85
2019-05-29T09:17:14.592Z,102069.72
2019-05-29T09:20:06.794Z,102065.37
2019-05-29T09:22:59.015Z,102065.37
2019-05-29T09:25:50.847Z,102066.16
2019-05-29T09:28:43.024Z,102065.31
2019-05-29T09:31:35.129Z,102074.08
2019-05-29T09:34:27.110Z,102067.95
2019-05-29T09:37:20.421Z,102066.65
2019-05-29T09:40:17.024Z,102066.65
2019-05-29T09:43:09.230Z,102055.23
2019-05-29T09:46:02.338Z,102062.45
2019-05-29T09:48:54.586Z,102065.75
2019-05-29T09:51:46.984Z,102065.75
2019-05-29T09:54:38.933Z,102068.28
2019-05-29T09:57:31.120Z,102065.40
2019-05-29T10:00:23.026Z,102065.40
2019-05-29T10:03:14.749Z,102060.52
2019-05-29T10:06:09.317Z,102060.52
2019-05-29T10:09:01.638Z,102068.63
2019-05-29T10:11:58.031Z,102072.09
2019-05-29T10:14:51.193Z,102072.09
2019-05-29T10:17:41.414Z,102073.78
2019-05-29T10:20:33.515Z,102072.17
2019-05-29T10:23:25.543Z,102072.17
2019-05-29T10:26:22.152Z,102070.75
2019-05-29T10:29:14.430Z,102069.48
2019-05-29T10:32:06.767Z,102069.68
2019-05-29T10:34:59.179Z,102069.51
2019-05-29T10:37:51.281Z,102075.03
2019-05-29T10:40:50.130Z,102075.03
2019-05-29T10:43:37.310Z,102068.86
2019-05-29T10:46:29.593Z,102071.88
2019-05-29T10:49:21.769Z,102071.88
2019-05-29T10:52:17.176Z,102065.64
2019-05-29T10:55:07.373Z,102068.50
2019-05-29T10:57:59.799Z,102065.01
2019-05-29T11:00:51.990Z,102063.34
2019-05-29T11:03:45.522Z,102053.63
2019-05-29T11:06:40.432Z,102053.85
2019-05-29T11:09:44.145Z,102051.84
2019-05-29T11:12:25.519Z,102042.28
2019-05-29T11:15:21.437Z,102042.28
2019-05-29T11:18:11.337Z,102040.98
2019-05-29T11:21:03.394Z,102047.75
2019-05-29T11:23:56.034Z,102047.75
2019-05-29T11:26:48.407Z,102051.41
2019-05-29T11:29:40.834Z,102056.36
2019-05-29T11:32:33.040Z,102049.20
2019-05-29T11:35:25.328Z,102056.44
2019-05-29T11:38:17.240Z,102056.44
2019-05-29T11:41:25.035Z,102056.05
2019-05-29T11:44:03.523Z,102051.53
2019-05-29T11:46:56.129Z,102056.97
2019-05-29T11:49:48.062Z,102053.44
2019-05-29T11:52:42.929Z,102055.23
2019-05-29T11:55:33.709Z,102047.98
2019-05-29T11:58:30.991Z,102054.33
2019-05-29T12:01:19.255Z,102054.33
2019-05-29T12:04:24.184Z,102046.48
2019-05-29T12:07:05.985Z,102042.76
2019-05-29T12:09:59.492Z,102041.52
2019-05-29T12:12:51.467Z,102041.52
2019-05-29T12:15:43.935Z,102046.91
2019-05-29T12:18:35.701Z,102036.02
2019-05-29T12:21:28.007Z,102040.28
2019-05-29T12:24:19.851Z,102039.32
2019-05-29T12:27:12.224Z,102035.52
2019-05-29T12:30:08.846Z,102030.73
2019-05-29T12:33:01.201Z,102035.84
2019-05-29T12:35:52.967Z,102028.19
2019-05-29T12:38:44.971Z,102028.19
2019-05-29T12:41:37.145Z,102030.66
2019-05-29T12:44:28.983Z,102017.81
2019-05-29T12:47:21.041Z,102024.31
2019-05-29T12:50:14.547Z,102024.31
2019-05-29T12:53:06.083Z,102025.77
2019-05-29T12:55:58.362Z,102032.61
2019-05-29T12:58:50.210Z,102021.58
2019-05-29T13:01:42.231Z,102018.77
2019-05-29T13:05:05.117Z,102015.55
2019-05-29T13:07:27.440Z,102014.78
2019-05-29T13:10:29.884Z,102014.84
2019-05-29T13:13:13.431Z,102011.58
2019-05-29T13:16:05.454Z,102013.78
2019-05-29T13:18:57.399Z,102009.89
2019-05-29T13:21:49.576Z,102002.53
2019-05-29T13:24:41.272Z,102010.13
2019-05-29T13:27:33.291Z,102007.94
2019-05-29T13:30:25.492Z,102007.94
2019-05-29T13:33:17.239Z,102006.55
2019-05-29T13:36:09.261Z,102003.45
2019-05-29T13:39:02.369Z,102011.27
2019-05-29T13:41:54.137Z,101998.53
2019-05-29T13:44:46.457Z,101998.53
2019-05-29T13:47:38.368Z,102004.58
2019-05-29T13:50:30.173Z,101999.81
2019-05-29T13:53:22.339Z,102002.73
2019-05-29T13:56:14.381Z,101995.63
2019-05-29T13:59:06.715Z,101992.95
2019-05-29T14:02:00.263Z,101994.28
2019-05-29T14:04:52.290Z,101989.05
2019-05-29T14:07:44.270Z,101985.27
2019-05-29T14:10:36.418Z,101980.50
2019-05-29T14:13:28.508Z,101982.41
2019-05-29T14:16:20.468Z,101980.19
2019-05-29T14:19:13.617Z,101980.19
2019-05-29T14:22:07.002Z,101975.25
2019-05-29T14:24:59.175Z,101977.63
2019-05-29T14:27:51.072Z,101980.75
2019-05-29T14:30:42.905Z,101983.05
2019-05-29T14:33:35.132Z,101983.05
2019-05-29T14:36:26.919Z,101971.84
2019-05-29T14:39:19.147Z,101971.84
2019-05-29T14:42:11.881Z,101969.36
2019-05-29T14:45:08.370Z,101975.46
2019-05-29T14:48:02.147Z,101969.31
2019-05-29T14:50:54.275Z,101974.47
2019-05-29T14:53:45.955Z,101965.45
2019-05-29T14:56:38.073Z,101966.17
2019-05-29T14:59:29.963Z,101966.17
2019-05-29T15:02:24.189Z,101972.52
2019-05-29T15:05:16.797Z,101976.11
2019-05-29T15:08:10.065Z,101970.98
2019-05-29T15:11:03.650Z,101969.55
2019-05-29T15:13:55.809Z,101979.33
2019-05-29T15:16:47.897Z,101980.02
2019-05-29T15:19:39.809Z,101976.94
2019-05-29T15:22:31.574Z,101976.94
2019-05-29T15:25:24.482Z,101967.98
2019-05-29T15:28:18.024Z,101967.98
2019-05-29T15:31:10.408Z,101972.48
2019-05-29T15:34:02.455Z,101970.41
2019-05-29T15:36:54.334Z,101954.45
2019-05-29T15:39:46.226Z,101974.34
2019-05-29T15:42:38.052Z,101967.78
2019-05-29T15:45:30.143Z,101967.78
2019-05-29T15:48:22.339Z,101967.35
2019-05-29T15:51:15.107Z,101967.35
2019-05-29T15:54:07.138Z,101966.35
2019-05-29T15:56:59.307Z,101966.35
2019-05-29T15:59:51.313Z,101957.28
2019-05-29T16:02:43.259Z,101957.28
2019-05-29T16:05:35.257Z,101956.16
2019-05-29T16:08:27.327Z,101953.13
2019-05-29T16:11:19.265Z,101948.44
2019-05-29T16:14:11.035Z,101939.77
2019-05-29T16:17:02.725Z,101946.17
2019-05-29T16:19:54.774Z,101953.62
2019-05-29T16:22:46.723Z,101941.70
2019-05-29T16:25:40.674Z,101941.70
2019-05-29T16:28:32.000Z,101937.22
2019-05-29T16:31:24.048Z,101944.02
2019-05-29T16:34:18.397Z,101947.52
2019-05-29T16:37:11.117Z,101938.06
2019-05-29T16:40:08.601Z,101938.06
2019-05-29T16:43:00.255Z,101923.86
2019-05-29T16:45:52.148Z,101919.57
2019-05-29T16:48:43.989Z,101919.57
2019-05-29T16:51:35.761Z,101919.16
2019-05-29T16:54:27.827Z,101919.16
2019-05-29T16:57:21.195Z,101931.45
2019-05-29T17:00:15.593Z,101931.45
2019-05-29T17:03:07.595Z,101936.38
2019-05-29T17:05:59.428Z,101932.59
2019-05-29T17:08:51.541Z,101935.67
2019-05-29T17:11:43.387Z,101935.67
2019-05-29T17:14:35.510Z,101936.98
2019-05-29T17:17:30.499Z,101938.20
2019-05-29T17:20:36.316Z,101938.20
2019-05-29T17:23:28.171Z,101930.55
2019-05-29T17:26:20.799Z,101928.84
2019-05-29T17:29:13.052Z,101928.84
2019-05-29T17:32:05.490Z,101923.80
2019-05-29T17:34:57.432Z,101927.26
2019-05-29T17:37:49.402Z,101926.24
2019-05-29T17:40:41.810Z,101925.27
2019-05-29T17:43:33.600Z,101925.27
2019-05-29T17:46:25.923Z,101924.27
2019-05-29T17:49:17.863Z,101924.27
2019-05-29T17:52:10.331Z,101924.79
2019-05-29T17:55:03.694Z,101928.52
2019-05-29T17:57:55.820Z,101928.52
2019-05-29T18:00:47.802Z,101922.66
2019-05-29T18:03:40.007Z,101922.66
2019-05-29T18:06:32.013Z,101936.36
2019-05-29T18:09:27.396Z,101936.36
2019-05-29T18:12:19.057Z,101943.85
2019-05-29T18:15:10.827Z,101937.89
2019-05-29T18:18:02.847Z,101937.89
2019-05-29T18:20:54.609Z,101937.62
2019-05-29T18:23:46.774Z,101936.61
2019-05-29T18:26:46.839Z,101936.70
2019-05-29T18:29:32.285Z,101932.50
2019-05-29T18:32:24.643Z,101929.25
2019-05-29T18:35:16.747Z,101931.52
2019-05-29T18:38:08.937Z,101922.38
2019-05-29T18:41:01.214Z,101922.38
2019-05-29T18:43:53.350Z,101921.05
2019-05-29T18:46:45.160Z,101912.70
2019-05-29T18:49:37.281Z,101915.17
2019-05-29T18:52:29.942Z,101921.25
2019-05-29T18:55:22.785Z,101926.52
2019-05-29T18:58:14.782Z,101926.52
2019-05-29T19:01:06.895Z,101922.48
2019-05-29T19:03:58.897Z,101926.72
2019-05-29T19:06:50.961Z,101920.31
2019-05-29T19:09:42.726Z,101926.19
2019-05-29T19:12:35.089Z,101923.88
2019-05-29T19:15:28.054Z,101923.88
2019-05-29T19:18:20.210Z,101928.58
2019-05-29T19:21:12.004Z,101933.48
2019-05-29T19:24:03.917Z,101931.87
2019-05-29T19:26:55.739Z,101931.87
2019-05-29T19:29:47.969Z,101930.67
2019-05-29T19:32:39.839Z,101930.67
2019-05-29T19:35:31.892Z,101934.45
2019-05-29T19:38:24.052Z,101939.65
2019-05-29T19:41:15.975Z,101940.42
2019-05-29T19:44:10.676Z,101943.34
2019-05-29T19:47:03.243Z,101950.56
2019-05-29T19:49:55.551Z,101955.67
2019-05-29T19:52:47.801Z,101955.67
2019-05-29T19:55:39.941Z,101955.30
2019-05-29T19:58:31.999Z,101955.30
2019-05-29T20:01:31.609Z,101958.38
2019-05-29T20:04:17.445Z,101961.50
2019-05-29T20:07:09.602Z,101955.95
2019-05-29T20:10:01.519Z,101960.59
2019-05-29T20:12:53.499Z,101960.59
2019-05-29T20:15:46.459Z,101965.53
2019-05-29T20:18:38.568Z,101964.58
2019-05-29T20:21:30.667Z,101964.27
2019-05-29T20:24:22.728Z,101964.19
2019-05-29T20:27:14.579Z,101968.77
2019-05-29T20:30:07.724Z,101968.77
2019-05-29T20:32:59.289Z,101965.36
2019-05-29T20:35:51.431Z,101963.71
2019-05-29T20:38:43.487Z,101960.98
2019-05-29T20:41:38.372Z,101960.98
2019-05-29T20:44:28.707Z,101971.78
2019-05-29T20:47:20.467Z,101966.70
2019-05-29T20:50:12.490Z,101966.70
2019-05-29T20:53:04.243Z,101971.23
2019-05-29T20:55:56.290Z,101969.45
2019-05-29T20:58:48.155Z,101968.51
2019-05-29T21:01:45.537Z,101964.14
2019-05-29T21:04:34.665Z,101964.14
2019-05-29T21:07:26.417Z,101967.64
2019-05-29T21:10:18.957Z,101972.52
2019-05-29T21:13:10.983Z,101964.73
2019-05-29T21:16:02.842Z,101968.96
2019-05-29T21:18:54.699Z,101965.67
2019-05-29T21:21:46.563Z,101960.68
2019-05-29T21:24:38.984Z,101967.17
2019-05-29T21:27:31.286Z,101967.17
2019-05-29T21:30:23.179Z,101963.47
2019-05-29T21:33:15.469Z,101969.91
2019-05-29T21:36:07.431Z,101967.88
2019-05-29T21:38:59.446Z,101967.88
2019-05-29T21:41:51.447Z,101964.97
2019-05-29T21:44:44.804Z,101962.80
2019-05-29T21:47:37.352Z,101962.80
2019-05-29T21:50:29.332Z,101959.75
2019-05-29T21:53:22.014Z,101965.08
2019-05-29T21:56:14.034Z,101954.17
2019-05-29T21:59:06.216Z,101956.86
2019-05-29T22:01:58.395Z,101958.28
2019-05-29T22:04:50.355Z,101958.28
2019-05-29T22:07:42.804Z,101953.79
2019-05-29T22:10:35.006Z,101953.79
2019-05-29T22:13:26.858Z,101954.16
2019-05-29T22:16:18.704Z,101954.16
2019-05-29T22:19:10.556Z,101959.27
2019-05-29T22:22:02.388Z,101952.19
2019-05-29T22:24:55.202Z,101952.19
2019-05-29T22:27:46.820Z,101948.94
2019-05-29T22:30:38.677Z,101941.73
2019-05-29T22:33:30.697Z,101941.34
2019-05-29T22:36:22.499Z,101935.08
2019-05-29T22:39:14.503Z,101935.08
2019-05-29T22:42:06.616Z,101940.62
2019-05-29T22:44:58.391Z,101931.87
2019-05-29T22:47:51.530Z,101926.29
2019-05-29T22:50:43.645Z,101926.29
2019-05-29T22:53:35.488Z,101919.06
2019-05-29T22:56:28.071Z,101919.77
2019-05-29T22:59:31.456Z,101915.38
2019-05-29T23:02:13.678Z,101913.77
2019-05-29T23:05:06.225Z,101913.77
2019-05-29T23:07:58.802Z,101914.83
2019-05-29T23:10:52.172Z,101908.55
2019-05-29T23:13:44.271Z,101908.19
2019-05-29T23:16:36.107Z,101910.81
2019-05-29T23:19:27.971Z,101910.81
2019-05-29T23:22:19.861Z,101907.85
2019-05-29T23:25:11.859Z,101904.90
2019-05-29T23:28:03.817Z,101900.77
2019-05-29T23:30:56.665Z,101888.70
2019-05-29T23:33:49.051Z,101888.70
2019-05-29T23:36:41.224Z,101889.66
2019-05-29T23:39:33.270Z,101885.97
2019-05-29T23:42:25.401Z,101888.79
2019-05-29T23:45:17.423Z,101888.09
2019-05-29T23:48:09.587Z,101880.16
2019-05-29T23:51:02.010Z,101879.55
2019-05-29T23:53:55.563Z,101879.55
2019-05-29T23:56:48.068Z,101871.00
2019-05-29T23:59:40.113Z,101872.67
